HDGA4: War Eagle Creek At Hindsville, AR

                                SHEF ID:       HDGA4     War Eagle Crk nr Hindsville,AR
STATION TYPE:

STAGE RIV-FLOW WTR-TEMP CONDUCT BAT-LOAD
ft cfs F umho/cm volt
Ccp-Rev Ccp-Rev Ccp-Rev Ccp-Rev Ccp-Rev
(America/Chicago)
11/24 00:00 1.49 181 57.81 ---- 11.02
11/24 01:00 1.47 177 57.72 ---- 11.02
11/24 02:00 1.47 177 57.54 ---- 11.01
11/24 03:00 1.48 179 57.36 ---- 11.00
11/24 04:00 1.47 177 57.27 ---- 10.99
11/24 05:00 1.46 175 57.25 ---- 10.99
11/24 06:00 1.45 173 57.22 ---- 10.99
11/24 07:00 1.45 173 57.18 ---- 10.99
11/24 08:00 1.44 171 57.13 ---- 10.99
11/24 09:00 1.43 169 57.16 ---- 10.99
11/24 10:00 1.42 167 57.11 ---- 10.99
11/24 11:00 1.42 167 57.07 ---- 10.99
11/24 12:00 1.41 165 57.27 ---- 11.19
11/24 13:00 1.40 163 57.51 ---- 11.31
11/24 14:00 1.39 161 57.72 ---- 11.25
11/24 15:00 1.39 161 57.81 ---- 11.18
11/24 16:00 1.38 159 57.87 ---- 11.13
11/24 17:00 1.37 158 57.90 ---- 11.09
11/24 18:00 1.37 158 57.90 ---- 11.06
11/24 19:00 1.38 159 57.83 ---- 11.02
11/24 20:00 1.38 159 57.85 ---- 11.01
11/24 21:00 1.38 159 57.87 ---- 11.00
11/24 22:00 1.38 159 57.83 ---- 10.99
11/24 23:00 1.38 159 57.81 ---- 10.99
Data processed at Tue 25Nov2025 05:13 GMT

NOTICE: If you are parsing this page

Please convert to using our Data API. Starting January 1st, 2026 we will be migrating to: https://water.usace.army.mil with modern pages rendered in JavaScript. You will no longer be able to scrape this page! CWMSDataAPI (CDA)

Timeseries IDs (TSIDs)

TSIDs used from left to right in the data table
HIND.Stage.Inst.1Hour.0.Ccp-Rev
HIND.Flow.Inst.1Hour.0.Ccp-Rev
HIND.Temp-Water.Inst.1Hour.0.Ccp-Rev
HIND.Cond.Inst.1Hour.0.Ccp-Rev
HIND.Volt-Battery Load.Inst.1Hour.0.Ccp-Rev

                            

All information presented herein is the property of the government of the United States of America and may be revised or deleted at any time without prior notice. Dissemination of this information without the expressed written consent of the Public Affairs Office, Tulsa District U.S. Army Corps of Engineers is strictly prohibited. These data are gathered electronically and, as presented, have NOT undergone any form of quality control. These data are NOT guaranteed to be valid or correct.